sensor_id;sensor_type;location;lat;lon;timestamp;P1;durP1;ratioP1;P2;durP2;ratioP2
58966;SDS011;44744;51.894;5.080;2022-12-07T00:00:02;9.00;;;3.60;;
58966;SDS011;44744;51.894;5.080;2022-12-07T00:02:09;4.70;;;3.00;;
58966;SDS011;44744;51.894;5.080;2022-12-07T00:03:10;6.60;;;3.30;;
58966;SDS011;44744;51.894;5.080;2022-12-07T00:04:12;8.90;;;3.50;;
58966;SDS011;44744;51.894;5.080;2022-12-07T00:05:14;5.50;;;3.30;;
58966;SDS011;44744;51.894;5.080;2022-12-07T00:06:15;8.00;;;3.70;;
58966;SDS011;44744;51.894;5.080;2022-12-07T00:07:18;6.00;;;3.90;;
58966;SDS011;44744;51.894;5.080;2022-12-07T00:08:18;7.30;;;3.70;;
58966;SDS011;44744;51.894;5.080;2022-12-07T00:09:18;6.70;;;3.60;;
58966;SDS011;44744;51.894;5.080;2022-12-07T00:10:19;8.60;;;3.90;;
58966;SDS011;44744;51.894;5.080;2022-12-07T00:11:20;5.10;;;2.80;;
58966;SDS011;44744;51.894;5.080;2022-12-07T00:13:21;6.20;;;3.60;;
58966;SDS011;44744;51.894;5.080;2022-12-07T00:14:22;8.30;;;3.70;;
58966;SDS011;44744;51.894;5.080;2022-12-07T00:15:22;5.50;;;3.40;;
58966;SDS011;44744;51.894;5.080;2022-12-07T00:16:23;6.80;;;3.30;;
58966;SDS011;44744;51.894;5.080;2022-12-07T00:17:30;6.70;;;3.10;;
58966;SDS011;44744;51.894;5.080;2022-12-07T00:18:31;7.50;;;3.50;;
58966;SDS011;44744;51.894;5.080;2022-12-07T00:19:32;6.90;;;3.50;;
58966;SDS011;44744;51.894;5.080;2022-12-07T00:20:32;7.80;;;3.60;;
58966;SDS011;44744;51.894;5.080;2022-12-07T00:21:34;7.50;;;3.10;;
58966;SDS011;44744;51.894;5.080;2022-12-07T00:22:35;5.90;;;3.10;;
58966;SDS011;44744;51.894;5.080;2022-12-07T00:23:35;7.10;;;3.20;;
58966;SDS011;44744;51.894;5.080;2022-12-07T00:24:36;7.00;;;3.20;;
58966;SDS011;44744;51.894;5.080;2022-12-07T00:25:36;4.80;;;3.30;;
58966;SDS011;44744;51.894;5.080;2022-12-07T00:26:38;8.30;;;3.20;;
58966;SDS011;44744;51.894;5.080;2022-12-07T00:27:39;6.10;;;3.10;;
58966;SDS011;44744;51.894;5.080;2022-12-07T00:28:39;7.50;;;3.40;;
58966;SDS011;44744;51.894;5.080;2022-12-07T00:29:40;9.90;;;3.90;;
58966;SDS011;44744;51.894;5.080;2022-12-07T00:30:41;8.70;;;3.70;;
58966;SDS011;44744;51.894;5.080;2022-12-07T00:31:41;7.40;;;3.00;;
58966;SDS011;44744;51.894;5.080;2022-12-07T00:32:41;5.90;;;3.40;;
58966;SDS011;44744;51.894;5.080;2022-12-07T00:33:42;7.30;;;3.40;;
58966;SDS011;44744;51.894;5.080;2022-12-07T00:34:43;7.70;;;3.70;;
58966;SDS011;44744;51.894;5.080;2022-12-07T00:35:45;5.70;;;3.50;;
58966;SDS011;44744;51.894;5.080;2022-12-07T00:36:45;6.30;;;3.30;;
58966;SDS011;44744;51.894;5.080;2022-12-07T00:37:46;9.10;;;4.00;;
58966;SDS011;44744;51.894;5.080;2022-12-07T00:38:47;9.70;;;3.40;;
58966;SDS011;44744;51.894;5.080;2022-12-07T00:39:47;8.30;;;3.00;;
58966;SDS011;44744;51.894;5.080;2022-12-07T00:40:54;8.50;;;3.10;;
58966;SDS011;44744;51.894;5.080;2022-12-07T00:41:56;10.50;;;3.40;;
58966;SDS011;44744;51.894;5.080;2022-12-07T00:42:56;4.70;;;3.50;;
58966;SDS011;44744;51.894;5.080;2022-12-07T00:43:57;7.70;;;3.70;;
58966;SDS011;44744;51.894;5.080;2022-12-07T00:44:57;7.70;;;3.20;;
58966;SDS011;44744;51.894;5.080;2022-12-07T00:45:57;6.10;;;3.20;;
58966;SDS011;44744;51.894;5.080;2022-12-07T00:46:58;5.90;;;3.30;;
58966;SDS011;44744;51.894;5.080;2022-12-07T00:47:58;9.90;;;3.30;;
58966;SDS011;44744;51.894;5.080;2022-12-07T00:48:59;7.90;;;3.40;;
58966;SDS011;44744;51.894;5.080;2022-12-07T00:49:59;7.60;;;3.50;;
58966;SDS011;44744;51.894;5.080;2022-12-07T00:50:59;4.00;;;2.80;;
58966;SDS011;44744;51.894;5.080;2022-12-07T00:52:00;7.40;;;3.40;;
58966;SDS011;44744;51.894;5.080;2022-12-07T00:53:00;5.60;;;3.00;;
58966;SDS011;44744;51.894;5.080;2022-12-07T00:54:01;6.00;;;3.50;;
58966;SDS011;44744;51.894;5.080;2022-12-07T00:55:01;6.30;;;3.50;;
58966;SDS011;44744;51.894;5.080;2022-12-07T00:56:07;7.80;;;3.60;;
58966;SDS011;44744;51.894;5.080;2022-12-07T00:57:08;5.80;;;3.40;;
58966;SDS011;44744;51.894;5.080;2022-12-07T00:58:08;7.00;;;3.10;;
58966;SDS011;44744;51.894;5.080;2022-12-07T00:59:10;4.50;;;2.80;;
58966;SDS011;44744;51.894;5.080;2022-12-07T01:00:13;7.10;;;3.50;;
58966;SDS011;44744;51.894;5.080;2022-12-07T01:01:13;6.10;;;3.20;;
58966;SDS011;44744;51.894;5.080;2022-12-07T01:02:14;5.80;;;3.10;;
58966;SDS011;44744;51.894;5.080;2022-12-07T01:03:15;7.70;;;3.30;;
58966;SDS011;44744;51.894;5.080;2022-12-07T01:04:16;9.00;;;3.10;;
58966;SDS011;44744;51.894;5.080;2022-12-07T01:05:16;5.80;;;2.90;;
58966;SDS011;44744;51.894;5.080;2022-12-07T01:06:17;8.50;;;3.40;;
58966;SDS011;44744;51.894;5.080;2022-12-07T01:07:18;4.50;;;3.00;;
58966;SDS011;44744;51.894;5.080;2022-12-07T01:08:19;7.40;;;3.50;;
58966;SDS011;44744;51.894;5.080;2022-12-07T01:09:20;4.80;;;2.90;;
58966;SDS011;44744;51.894;5.080;2022-12-07T01:10:20;6.40;;;3.30;;
58966;SDS011;44744;51.894;5.080;2022-12-07T01:11:22;5.70;;;3.20;;
58966;SDS011;44744;51.894;5.080;2022-12-07T01:12:25;6.10;;;3.20;;
58966;SDS011;44744;51.894;5.080;2022-12-07T01:13:25;6.20;;;3.50;;
58966;SDS011;44744;51.894;5.080;2022-12-07T01:14:25;5.80;;;3.30;;
58966;SDS011;44744;51.894;5.080;2022-12-07T01:15:26;10.50;;;3.30;;
58966;SDS011;44744;51.894;5.080;2022-12-07T01:16:27;7.00;;;3.20;;
58966;SDS011;44744;51.894;5.080;2022-12-07T01:17:29;7.70;;;3.10;;
58966;SDS011;44744;51.894;5.080;2022-12-07T01:18:30;6.90;;;3.60;;
58966;SDS011;44744;51.894;5.080;2022-12-07T01:19:32;4.40;;;2.60;;
58966;SDS011;44744;51.894;5.080;2022-12-07T01:20:33;4.80;;;2.60;;
58966;SDS011;44744;51.894;5.080;2022-12-07T01:21:33;6.60;;;2.80;;
58966;SDS011;44744;51.894;5.080;2022-12-07T01:22:38;8.80;;;3.00;;
58966;SDS011;44744;51.894;5.080;2022-12-07T01:23:44;5.50;;;3.10;;
58966;SDS011;44744;51.894;5.080;2022-12-07T01:24:44;5.30;;;2.80;;
58966;SDS011;44744;51.894;5.080;2022-12-07T01:25:45;8.50;;;2.90;;
58966;SDS011;44744;51.894;5.080;2022-12-07T01:26:45;4.10;;;2.60;;
58966;SDS011;44744;51.894;5.080;2022-12-07T01:27:49;6.00;;;2.80;;
58966;SDS011;44744;51.894;5.080;2022-12-07T01:28:50;6.00;;;2.60;;
58966;SDS011;44744;51.894;5.080;2022-12-07T01:29:51;8.40;;;3.40;;
58966;SDS011;44744;51.894;5.080;2022-12-07T01:30:59;8.30;;;3.50;;
58966;SDS011;44744;51.894;5.080;2022-12-07T01:32:07;5.50;;;2.90;;
58966;SDS011;44744;51.894;5.080;2022-12-07T01:33:07;6.40;;;3.00;;
58966;SDS011;44744;51.894;5.080;2022-12-07T01:34:08;7.40;;;3.10;;
58966;SDS011;44744;51.894;5.080;2022-12-07T01:35:09;5.50;;;2.60;;
58966;SDS011;44744;51.894;5.080;2022-12-07T01:36:16;8.20;;;2.90;;
58966;SDS011;44744;51.894;5.080;2022-12-07T01:37:17;7.70;;;2.90;;
58966;SDS011;44744;51.894;5.080;2022-12-07T01:38:17;6.60;;;3.00;;
58966;SDS011;44744;51.894;5.080;2022-12-07T01:39:17;7.00;;;2.80;;
58966;SDS011;44744;51.894;5.080;2022-12-07T01:40:18;6.60;;;3.30;;
58966;SDS011;44744;51.894;5.080;2022-12-07T01:41:18;5.20;;;2.60;;
58966;SDS011;44744;51.894;5.080;2022-12-07T01:42:21;5.50;;;2.80;;
58966;SDS011;44744;51.894;5.080;2022-12-07T01:43:21;5.50;;;2.50;;
58966;SDS011;44744;51.894;5.080;2022-12-07T01:44:26;4.40;;;2.60;;
58966;SDS011;44744;51.894;5.080;2022-12-07T01:45:46;8.00;;;2.80;;
58966;SDS011;44744;51.894;5.080;2022-12-07T01:47:57;5.00;;;2.50;;
58966;SDS011;44744;51.894;5.080;2022-12-07T01:48:58;5.20;;;2.70;;
58966;SDS011;44744;51.894;5.080;2022-12-07T01:50:00;5.20;;;2.60;;
58966;SDS011;44744;51.894;5.080;2022-12-07T01:51:02;6.80;;;2.60;;
58966;SDS011;44744;51.894;5.080;2022-12-07T01:52:11;7.00;;;2.60;;
58966;SDS011;44744;51.894;5.080;2022-12-07T01:53:15;5.90;;;2.50;;
58966;SDS011;44744;51.894;5.080;2022-12-07T01:54:17;7.60;;;2.50;;
58966;SDS011;44744;51.894;5.080;2022-12-07T01:55:20;5.80;;;2.80;;
58966;SDS011;44744;51.894;5.080;2022-12-07T01:56:22;6.90;;;2.50;;
58966;SDS011;44744;51.894;5.080;2022-12-07T01:57:26;5.20;;;2.30;;
58966;SDS011;44744;51.894;5.080;2022-12-07T01:58:27;3.60;;;2.40;;
58966;SDS011;44744;51.894;5.080;2022-12-07T01:59:28;6.70;;;2.30;;
58966;SDS011;44744;51.894;5.080;2022-12-07T02:00:28;4.80;;;2.40;;
58966;SDS011;44744;51.894;5.080;2022-12-07T02:01:29;4.30;;;2.10;;
58966;SDS011;44744;51.894;5.080;2022-12-07T02:02:31;6.40;;;2.50;;
58966;SDS011;44744;51.894;5.080;2022-12-07T02:03:34;5.80;;;2.50;;
58966;SDS011;44744;51.894;5.080;2022-12-07T02:04:39;3.90;;;2.00;;
58966;SDS011;44744;51.894;5.080;2022-12-07T02:05:40;8.40;;;2.70;;
58966;SDS011;44744;51.894;5.080;2022-12-07T02:06:41;6.30;;;2.50;;
58966;SDS011;44744;51.894;5.080;2022-12-07T02:07:44;4.90;;;2.30;;
58966;SDS011;44744;51.894;5.080;2022-12-07T02:08:47;6.30;;;2.00;;
58966;SDS011;44744;51.894;5.080;2022-12-07T02:09:47;8.70;;;2.90;;
58966;SDS011;44744;51.894;5.080;2022-12-07T02:10:48;5.30;;;1.90;;
58966;SDS011;44744;51.894;5.080;2022-12-07T02:11:48;5.30;;;2.40;;
58966;SDS011;44744;51.894;5.080;2022-12-07T02:13:53;6.00;;;2.30;;
58966;SDS011;44744;51.894;5.080;2022-12-07T02:14:54;6.80;;;2.40;;
58966;SDS011;44744;51.894;5.080;2022-12-07T02:27:08;8.10;;;2.50;;
58966;SDS011;44744;51.894;5.080;2022-12-07T02:28:34;10.40;;;2.20;;
58966;SDS011;44744;51.894;5.080;2022-12-07T02:30:46;7.50;;;2.00;;
58966;SDS011;44744;51.894;5.080;2022-12-07T02:32:06;7.40;;;2.10;;
58966;SDS011;44744;51.894;5.080;2022-12-07T02:33:16;4.60;;;2.00;;
58966;SDS011;44744;51.894;5.080;2022-12-07T02:34:27;14.10;;;2.20;;
58966;SDS011;44744;51.894;5.080;2022-12-07T02:35:44;2.60;;;1.40;;
58966;SDS011;44744;51.894;5.080;2022-12-07T02:36:52;6.70;;;2.00;;
58966;SDS011;44744;51.894;5.080;2022-12-07T02:39:23;4.20;;;2.30;;
58966;SDS011;44744;51.894;5.080;2022-12-07T02:41:48;7.00;;;2.00;;
58966;SDS011;44744;51.894;5.080;2022-12-07T02:43:54;4.30;;;1.70;;
58966;SDS011;44744;51.894;5.080;2022-12-07T02:44:27;8.10;;;1.70;;
58966;SDS011;44744;51.894;5.080;2022-12-07T02:46:36;5.10;;;1.70;;
58966;SDS011;44744;51.894;5.080;2022-12-07T02:47:41;4.40;;;1.80;;
58966;SDS011;44744;51.894;5.080;2022-12-07T02:48:43;3.80;;;1.50;;
58966;SDS011;44744;51.894;5.080;2022-12-07T02:50:49;2.00;;;1.20;;
58966;SDS011;44744;51.894;5.080;2022-12-07T02:51:51;4.00;;;1.60;;
58966;SDS011;44744;51.894;5.080;2022-12-07T02:52:55;5.50;;;1.70;;
58966;SDS011;44744;51.894;5.080;2022-12-07T02:53:55;10.30;;;2.00;;
58966;SDS011;44744;51.894;5.080;2022-12-07T02:54:56;5.90;;;1.80;;
58966;SDS011;44744;51.894;5.080;2022-12-07T02:55:56;10.10;;;1.80;;
58966;SDS011;44744;51.894;5.080;2022-12-07T02:57:13;4.20;;;1.50;;
58966;SDS011;44744;51.894;5.080;2022-12-07T02:58:29;6.60;;;1.80;;
58966;SDS011;44744;51.894;5.080;2022-12-07T03:00:03;3.70;;;1.30;;
58966;SDS011;44744;51.894;5.080;2022-12-07T03:01:11;3.60;;;1.50;;
58966;SDS011;44744;51.894;5.080;2022-12-07T03:03:31;4.30;;;1.60;;
58966;SDS011;44744;51.894;5.080;2022-12-07T03:09:32;6.30;;;1.60;;
58966;SDS011;44744;51.894;5.080;2022-12-07T03:10:51;6.40;;;1.80;;
58966;SDS011;44744;51.894;5.080;2022-12-07T03:12:05;5.20;;;1.90;;
58966;SDS011;44744;51.894;5.080;2022-12-07T03:13:14;4.60;;;1.60;;
58966;SDS011;44744;51.894;5.080;2022-12-07T03:14:29;7.00;;;1.60;;
58966;SDS011;44744;51.894;5.080;2022-12-07T03:16:18;3.40;;;1.60;;
58966;SDS011;44744;51.894;5.080;2022-12-07T03:17:10;4.30;;;1.70;;
58966;SDS011;44744;51.894;5.080;2022-12-07T03:18:15;3.00;;;1.50;;
58966;SDS011;44744;51.894;5.080;2022-12-07T03:19:21;4.20;;;1.40;;
58966;SDS011;44744;51.894;5.080;2022-12-07T03:20:25;3.20;;;1.50;;
58966;SDS011;44744;51.894;5.080;2022-12-07T03:21:33;4.00;;;1.70;;
58966;SDS011;44744;51.894;5.080;2022-12-07T03:22:39;3.80;;;1.50;;
58966;SDS011;44744;51.894;5.080;2022-12-07T03:23:44;6.20;;;1.80;;
58966;SDS011;44744;51.894;5.080;2022-12-07T03:24:50;4.80;;;1.60;;
58966;SDS011;44744;51.894;5.080;2022-12-07T03:25:55;5.10;;;1.70;;
58966;SDS011;44744;51.894;5.080;2022-12-07T03:27:00;4.00;;;1.50;;
58966;SDS011;44744;51.894;5.080;2022-12-07T03:28:07;6.20;;;1.80;;
58966;SDS011;44744;51.894;5.080;2022-12-07T03:29:14;3.90;;;1.40;;
58966;SDS011;44744;51.894;5.080;2022-12-07T03:30:20;4.90;;;1.60;;
58966;SDS011;44744;51.894;5.080;2022-12-07T03:31:51;3.80;;;1.60;;
58966;SDS011;44744;51.894;5.080;2022-12-07T03:33:03;6.40;;;1.80;;
58966;SDS011;44744;51.894;5.080;2022-12-07T03:35:43;4.60;;;1.50;;
58966;SDS011;44744;51.894;5.080;2022-12-07T03:37:00;3.70;;;1.40;;
58966;SDS011;44744;51.894;5.080;2022-12-07T03:38:13;4.50;;;1.40;;
58966;SDS011;44744;51.894;5.080;2022-12-07T03:40:39;4.10;;;1.80;;
58966;SDS011;44744;51.894;5.080;2022-12-07T03:41:45;7.80;;;2.30;;
58966;SDS011;44744;51.894;5.080;2022-12-07T03:42:46;4.70;;;1.90;;
58966;SDS011;44744;51.894;5.080;2022-12-07T03:43:47;5.60;;;1.80;;
58966;SDS011;44744;51.894;5.080;2022-12-07T03:44:48;4.80;;;2.10;;
58966;SDS011;44744;51.894;5.080;2022-12-07T03:47:31;4.10;;;1.30;;
58966;SDS011;44744;51.894;5.080;2022-12-07T03:48:37;4.30;;;1.40;;
58966;SDS011;44744;51.894;5.080;2022-12-07T03:49:45;4.10;;;1.20;;
58966;SDS011;44744;51.894;5.080;2022-12-07T03:52:02;6.50;;;1.70;;
58966;SDS011;44744;51.894;5.080;2022-12-07T03:53:31;3.80;;;1.20;;
58966;SDS011;44744;51.894;5.080;2022-12-07T03:54:37;5.30;;;1.70;;
58966;SDS011;44744;51.894;5.080;2022-12-07T03:55:43;5.00;;;1.60;;
58966;SDS011;44744;51.894;5.080;2022-12-07T03:56:46;5.80;;;1.50;;
58966;SDS011;44744;51.894;5.080;2022-12-07T03:57:48;3.70;;;1.70;;
58966;SDS011;44744;51.894;5.080;2022-12-07T03:58:55;4.90;;;1.60;;
58966;SDS011;44744;51.894;5.080;2022-12-07T03:59:55;6.50;;;2.10;;
58966;SDS011;44744;51.894;5.080;2022-12-07T04:00:57;6.70;;;1.50;;
58966;SDS011;44744;51.894;5.080;2022-12-07T04:02:01;6.40;;;1.70;;
58966;SDS011;44744;51.894;5.080;2022-12-07T04:03:04;3.50;;;1.30;;
58966;SDS011;44744;51.894;5.080;2022-12-07T04:04:04;8.10;;;1.70;;
58966;SDS011;44744;51.894;5.080;2022-12-07T04:05:05;7.20;;;2.00;;
58966;SDS011;44744;51.894;5.080;2022-12-07T04:06:05;6.80;;;1.90;;
58966;SDS011;44744;51.894;5.080;2022-12-07T04:07:06;4.70;;;1.40;;
58966;SDS011;44744;51.894;5.080;2022-12-07T04:08:06;5.20;;;1.50;;
58966;SDS011;44744;51.894;5.080;2022-12-07T04:09:07;6.80;;;1.60;;
58966;SDS011;44744;51.894;5.080;2022-12-07T04:10:07;4.60;;;1.50;;
58966;SDS011;44744;51.894;5.080;2022-12-07T04:11:08;7.60;;;1.70;;
58966;SDS011;44744;51.894;5.080;2022-12-07T04:12:08;4.70;;;1.60;;
58966;SDS011;44744;51.894;5.080;2022-12-07T04:13:09;5.20;;;1.50;;
58966;SDS011;44744;51.894;5.080;2022-12-07T04:14:09;5.10;;;1.80;;
58966;SDS011;44744;51.894;5.080;2022-12-07T04:15:09;3.60;;;1.60;;
58966;SDS011;44744;51.894;5.080;2022-12-07T04:16:10;4.70;;;1.60;;
58966;SDS011;44744;51.894;5.080;2022-12-07T04:17:10;5.30;;;1.50;;
58966;SDS011;44744;51.894;5.080;2022-12-07T04:18:10;7.70;;;1.70;;
58966;SDS011;44744;51.894;5.080;2022-12-07T04:19:10;5.00;;;1.40;;
58966;SDS011;44744;51.894;5.080;2022-12-07T04:20:11;4.40;;;1.60;;
58966;SDS011;44744;51.894;5.080;2022-12-07T04:21:12;4.90;;;1.80;;
58966;SDS011;44744;51.894;5.080;2022-12-07T04:22:12;8.90;;;1.70;;
58966;SDS011;44744;51.894;5.080;2022-12-07T04:23:12;4.90;;;2.00;;
58966;SDS011;44744;51.894;5.080;2022-12-07T04:24:13;6.90;;;1.60;;
58966;SDS011;44744;51.894;5.080;2022-12-07T04:25:15;6.20;;;1.50;;
58966;SDS011;44744;51.894;5.080;2022-12-07T04:26:15;5.00;;;1.60;;
58966;SDS011;44744;51.894;5.080;2022-12-07T04:27:16;4.70;;;2.00;;
58966;SDS011;44744;51.894;5.080;2022-12-07T04:28:16;6.80;;;1.80;;
58966;SDS011;44744;51.894;5.080;2022-12-07T04:29:16;5.50;;;1.90;;
58966;SDS011;44744;51.894;5.080;2022-12-07T04:30:18;5.10;;;1.40;;
58966;SDS011;44744;51.894;5.080;2022-12-07T04:31:18;5.50;;;1.80;;
58966;SDS011;44744;51.894;5.080;2022-12-07T04:32:18;6.10;;;1.80;;
58966;SDS011;44744;51.894;5.080;2022-12-07T04:33:19;5.70;;;1.60;;
58966;SDS011;44744;51.894;5.080;2022-12-07T04:34:19;6.40;;;1.70;;
58966;SDS011;44744;51.894;5.080;2022-12-07T04:35:20;4.60;;;1.60;;
58966;SDS011;44744;51.894;5.080;2022-12-07T04:36:20;7.30;;;1.50;;
58966;SDS011;44744;51.894;5.080;2022-12-07T04:37:20;4.90;;;1.50;;
58966;SDS011;44744;51.894;5.080;2022-12-07T04:38:21;4.30;;;1.20;;
58966;SDS011;44744;51.894;5.080;2022-12-07T04:39:22;7.30;;;1.50;;
58966;SDS011;44744;51.894;5.080;2022-12-07T04:40:23;5.50;;;1.80;;
58966;SDS011;44744;51.894;5.080;2022-12-07T04:41:24;4.40;;;1.70;;
58966;SDS011;44744;51.894;5.080;2022-12-07T04:42:25;3.60;;;1.50;;
58966;SDS011;44744;51.894;5.080;2022-12-07T04:43:25;4.30;;;1.60;;
58966;SDS011;44744;51.894;5.080;2022-12-07T04:44:26;3.30;;;1.40;;
58966;SDS011;44744;51.894;5.080;2022-12-07T04:45:27;4.90;;;1.40;;
58966;SDS011;44744;51.894;5.080;2022-12-07T04:46:28;6.50;;;1.40;;
58966;SDS011;44744;51.894;5.080;2022-12-07T04:47:31;2.20;;;1.20;;
58966;SDS011;44744;51.894;5.080;2022-12-07T04:48:31;6.00;;;2.00;;
58966;SDS011;44744;51.894;5.080;2022-12-07T04:49:32;5.70;;;1.70;;
58966;SDS011;44744;51.894;5.080;2022-12-07T04:50:32;5.00;;;1.40;;
58966;SDS011;44744;51.894;5.080;2022-12-07T04:51:32;5.90;;;1.30;;
58966;SDS011;44744;51.894;5.080;2022-12-07T04:52:33;6.30;;;1.30;;
58966;SDS011;44744;51.894;5.080;2022-12-07T04:53:33;3.60;;;2.00;;
58966;SDS011;44744;51.894;5.080;2022-12-07T04:54:33;5.00;;;1.30;;
58966;SDS011;44744;51.894;5.080;2022-12-07T04:55:33;3.50;;;1.50;;
58966;SDS011;44744;51.894;5.080;2022-12-07T04:56:34;5.90;;;2.30;;
58966;SDS011;44744;51.894;5.080;2022-12-07T04:57:35;2.60;;;1.30;;
58966;SDS011;44744;51.894;5.080;2022-12-07T04:58:35;5.20;;;1.80;;
58966;SDS011;44744;51.894;5.080;2022-12-07T04:59:35;7.00;;;1.60;;
58966;SDS011;44744;51.894;5.080;2022-12-07T05:00:35;4.00;;;1.20;;
58966;SDS011;44744;51.894;5.080;2022-12-07T05:01:36;4.60;;;1.40;;
58966;SDS011;44744;51.894;5.080;2022-12-07T05:02:36;4.00;;;1.40;;
58966;SDS011;44744;51.894;5.080;2022-12-07T05:03:36;8.50;;;2.00;;
58966;SDS011;44744;51.894;5.080;2022-12-07T05:04:37;4.00;;;1.30;;
58966;SDS011;44744;51.894;5.080;2022-12-07T05:05:39;6.30;;;1.60;;
58966;SDS011;44744;51.894;5.080;2022-12-07T05:06:40;4.70;;;1.50;;
58966;SDS011;44744;51.894;5.080;2022-12-07T05:07:41;8.10;;;1.50;;
58966;SDS011;44744;51.894;5.080;2022-12-07T05:08:42;4.60;;;1.60;;
58966;SDS011;44744;51.894;5.080;2022-12-07T05:09:43;5.70;;;1.30;;
58966;SDS011;44744;51.894;5.080;2022-12-07T05:10:43;5.70;;;1.40;;
58966;SDS011;44744;51.894;5.080;2022-12-07T05:11:44;4.00;;;1.40;;
58966;SDS011;44744;51.894;5.080;2022-12-07T05:12:44;5.90;;;1.70;;
58966;SDS011;44744;51.894;5.080;2022-12-07T05:13:44;4.00;;;1.40;;
58966;SDS011;44744;51.894;5.080;2022-12-07T05:14:45;5.30;;;1.70;;
58966;SDS011;44744;51.894;5.080;2022-12-07T05:15:48;4.30;;;1.70;;
58966;SDS011;44744;51.894;5.080;2022-12-07T05:16:50;4.90;;;1.80;;
58966;SDS011;44744;51.894;5.080;2022-12-07T05:19:53;3.00;;;1.40;;
58966;SDS011;44744;51.894;5.080;2022-12-07T05:21:00;5.30;;;1.60;;
58966;SDS011;44744;51.894;5.080;2022-12-07T05:22:02;4.50;;;1.70;;
58966;SDS011;44744;51.894;5.080;2022-12-07T05:23:02;6.60;;;1.60;;
58966;SDS011;44744;51.894;5.080;2022-12-07T05:24:03;5.60;;;1.80;;
58966;SDS011;44744;51.894;5.080;2022-12-07T05:25:09;3.80;;;1.70;;
58966;SDS011;44744;51.894;5.080;2022-12-07T05:26:09;5.60;;;1.90;;
58966;SDS011;44744;51.894;5.080;2022-12-07T05:27:10;6.20;;;1.60;;
58966;SDS011;44744;51.894;5.080;2022-12-07T05:28:10;7.20;;;2.00;;
58966;SDS011;44744;51.894;5.080;2022-12-07T05:29:11;5.20;;;1.80;;
58966;SDS011;44744;51.894;5.080;2022-12-07T05:30:15;5.50;;;1.80;;
58966;SDS011;44744;51.894;5.080;2022-12-07T05:31:16;4.80;;;1.50;;
58966;SDS011;44744;51.894;5.080;2022-12-07T05:32:16;6.40;;;1.90;;
58966;SDS011;44744;51.894;5.080;2022-12-07T05:33:17;3.60;;;1.60;;
58966;SDS011;44744;51.894;5.080;2022-12-07T05:34:18;5.40;;;1.70;;
58966;SDS011;44744;51.894;5.080;2022-12-07T05:35:18;5.50;;;2.10;;
58966;SDS011;44744;51.894;5.080;2022-12-07T05:36:19;4.50;;;2.10;;
58966;SDS011;44744;51.894;5.080;2022-12-07T05:37:20;4.20;;;1.80;;
58966;SDS011;44744;51.894;5.080;2022-12-07T05:38:20;6.40;;;1.80;;
58966;SDS011;44744;51.894;5.080;2022-12-07T05:39:21;5.70;;;2.20;;
58966;SDS011;44744;51.894;5.080;2022-12-07T05:40:21;4.40;;;1.70;;
58966;SDS011;44744;51.894;5.080;2022-12-07T05:41:21;7.00;;;2.10;;
58966;SDS011;44744;51.894;5.080;2022-12-07T05:42:22;4.80;;;2.00;;
58966;SDS011;44744;51.894;5.080;2022-12-07T05:43:22;6.40;;;2.30;;
58966;SDS011;44744;51.894;5.080;2022-12-07T05:44:22;8.50;;;1.70;;
58966;SDS011;44744;51.894;5.080;2022-12-07T05:45:23;8.00;;;2.20;;
58966;SDS011;44744;51.894;5.080;2022-12-07T05:46:23;7.70;;;2.00;;
58966;SDS011;44744;51.894;5.080;2022-12-07T05:47:23;4.30;;;1.60;;
58966;SDS011;44744;51.894;5.080;2022-12-07T05:48:24;4.50;;;1.70;;
58966;SDS011;44744;51.894;5.080;2022-12-07T05:50:26;5.60;;;2.00;;
58966;SDS011;44744;51.894;5.080;2022-12-07T05:51:29;7.40;;;2.40;;
58966;SDS011;44744;51.894;5.080;2022-12-07T05:52:30;7.10;;;3.10;;
58966;SDS011;44744;51.894;5.080;2022-12-07T05:53:30;7.90;;;2.50;;
58966;SDS011;44744;51.894;5.080;2022-12-07T05:54:31;6.30;;;3.00;;
58966;SDS011;44744;51.894;5.080;2022-12-07T05:55:31;8.80;;;4.00;;
58966;SDS011;44744;51.894;5.080;2022-12-07T05:56:32;8.60;;;5.00;;
58966;SDS011;44744;51.894;5.080;2022-12-07T05:57:32;5.50;;;3.20;;
58966;SDS011;44744;51.894;5.080;2022-12-07T05:58:32;8.50;;;3.60;;
58966;SDS011;44744;51.894;5.080;2022-12-07T05:59:33;6.90;;;3.50;;
58966;SDS011;44744;51.894;5.080;2022-12-07T06:00:33;8.60;;;3.20;;
58966;SDS011;44744;51.894;5.080;2022-12-07T06:01:33;14.20;;;3.60;;
58966;SDS011;44744;51.894;5.080;2022-12-07T06:02:34;6.30;;;2.80;;
58966;SDS011;44744;51.894;5.080;2022-12-07T06:03:34;5.60;;;2.50;;
58966;SDS011;44744;51.894;5.080;2022-12-07T06:04:36;6.40;;;2.50;;
58966;SDS011;44744;51.894;5.080;2022-12-07T06:05:38;5.40;;;2.30;;
58966;SDS011;44744;51.894;5.080;2022-12-07T06:06:39;4.20;;;2.10;;
58966;SDS011;44744;51.894;5.080;2022-12-07T06:07:39;6.60;;;1.70;;
58966;SDS011;44744;51.894;5.080;2022-12-07T06:08:39;5.10;;;2.20;;
58966;SDS011;44744;51.894;5.080;2022-12-07T06:09:40;4.70;;;1.80;;
58966;SDS011;44744;51.894;5.080;2022-12-07T06:10:41;5.50;;;1.60;;
58966;SDS011;44744;51.894;5.080;2022-12-07T06:11:41;6.10;;;2.00;;
58966;SDS011;44744;51.894;5.080;2022-12-07T06:12:42;6.40;;;2.00;;
58966;SDS011;44744;51.894;5.080;2022-12-07T06:13:42;5.00;;;1.80;;
58966;SDS011;44744;51.894;5.080;2022-12-07T06:14:43;4.70;;;2.00;;
58966;SDS011;44744;51.894;5.080;2022-12-07T06:15:44;5.50;;;1.80;;
58966;SDS011;44744;51.894;5.080;2022-12-07T06:16:44;4.90;;;2.10;;
58966;SDS011;44744;51.894;5.080;2022-12-07T06:17:45;7.10;;;2.40;;
58966;SDS011;44744;51.894;5.080;2022-12-07T06:18:45;5.30;;;2.00;;
58966;SDS011;44744;51.894;5.080;2022-12-07T06:19:45;5.60;;;2.60;;
58966;SDS011;44744;51.894;5.080;2022-12-07T06:20:46;7.80;;;2.50;;
58966;SDS011;44744;51.894;5.080;2022-12-07T06:21:46;7.10;;;2.10;;
58966;SDS011;44744;51.894;5.080;2022-12-07T06:22:47;8.20;;;2.90;;
58966;SDS011;44744;51.894;5.080;2022-12-07T06:23:47;4.90;;;2.10;;
58966;SDS011;44744;51.894;5.080;2022-12-07T06:24:47;7.20;;;1.80;;
58966;SDS011;44744;51.894;5.080;2022-12-07T06:25:50;8.00;;;2.50;;
58966;SDS011;44744;51.894;5.080;2022-12-07T06:26:50;11.50;;;2.00;;
58966;SDS011;44744;51.894;5.080;2022-12-07T06:27:50;4.70;;;1.70;;
58966;SDS011;44744;51.894;5.080;2022-12-07T06:28:51;4.50;;;2.00;;
58966;SDS011;44744;51.894;5.080;2022-12-07T06:29:51;4.10;;;1.70;;
58966;SDS011;44744;51.894;5.080;2022-12-07T06:30:58;6.30;;;2.10;;
58966;SDS011;44744;51.894;5.080;2022-12-07T06:31:59;5.10;;;2.10;;
58966;SDS011;44744;51.894;5.080;2022-12-07T06:33:00;3.80;;;1.70;;
58966;SDS011;44744;51.894;5.080;2022-12-07T06:34:01;4.80;;;1.90;;
58966;SDS011;44744;51.894;5.080;2022-12-07T06:35:04;8.20;;;2.30;;
58966;SDS011;44744;51.894;5.080;2022-12-07T06:36:05;5.90;;;2.10;;
58966;SDS011;44744;51.894;5.080;2022-12-07T06:37:05;5.90;;;2.30;;
58966;SDS011;44744;51.894;5.080;2022-12-07T06:38:06;4.00;;;1.60;;
58966;SDS011;44744;51.894;5.080;2022-12-07T06:39:06;6.50;;;1.80;;
58966;SDS011;44744;51.894;5.080;2022-12-07T06:40:08;4.40;;;1.30;;
58966;SDS011;44744;51.894;5.080;2022-12-07T06:41:08;6.30;;;2.10;;
58966;SDS011;44744;51.894;5.080;2022-12-07T06:42:09;5.90;;;2.10;;
58966;SDS011;44744;51.894;5.080;2022-12-07T06:43:09;8.60;;;1.80;;
58966;SDS011;44744;51.894;5.080;2022-12-07T06:44:09;5.30;;;2.00;;
58966;SDS011;44744;51.894;5.080;2022-12-07T06:46:12;5.80;;;1.80;;
58966;SDS011;44744;51.894;5.080;2022-12-07T06:47:08;10.10;;;3.20;;
58966;SDS011;44744;51.894;5.080;2022-12-07T06:48:09;5.10;;;1.90;;
58966;SDS011;44744;51.894;5.080;2022-12-07T06:49:09;6.10;;;1.90;;
58966;SDS011;44744;51.894;5.080;2022-12-07T06:51:46;9.20;;;2.70;;
58966;SDS011;44744;51.894;5.080;2022-12-07T06:52:46;7.50;;;2.50;;
58966;SDS011;44744;51.894;5.080;2022-12-07T06:53:47;4.50;;;1.80;;
58966;SDS011;44744;51.894;5.080;2022-12-07T06:54:47;7.30;;;2.10;;
58966;SDS011;44744;51.894;5.080;2022-12-07T06:55:47;4.20;;;1.80;;